createdAt,value
2019-02-12T00:00:41.928Z,97762.72
2019-02-12T00:03:07.774Z,97765.35
2019-02-12T00:05:33.604Z,97769.62
2019-02-12T00:07:59.425Z,97768.31
2019-02-12T00:10:25.234Z,97767.36
2019-02-12T00:12:54.204Z,97781.05
2019-02-12T00:15:20.136Z,97788.76
2019-02-12T00:17:45.965Z,97778.19
2019-02-12T00:20:12.036Z,97789.70
2019-02-12T00:22:37.907Z,97788.49
2019-02-12T00:25:07.140Z,97794.45
2019-02-12T00:27:33.275Z,97822.77
2019-02-12T00:29:59.217Z,97802.12
2019-02-12T00:32:25.350Z,97797.76
2019-02-12T00:34:54.238Z,97793.02
2019-02-12T00:37:20.058Z,97790.99
2019-02-12T00:39:48.688Z,97784.61
2019-02-12T00:42:14.562Z,97788.48
2019-02-12T00:44:44.909Z,97800.39
2019-02-12T00:47:10.733Z,97796.94
2019-02-12T00:49:38.099Z,97786.31
2019-02-12T00:52:04.221Z,97788.95
2019-02-12T00:54:30.065Z,97796.27
2019-02-12T00:56:56.143Z,97783.06
2019-02-12T00:59:22.223Z,97806.48
2019-02-12T01:01:51.346Z,97813.78
2019-02-12T01:04:17.183Z,97830.49
2019-02-12T01:06:44.782Z,97835.63
2019-02-12T01:09:10.729Z,97860.45
2019-02-12T01:11:40.157Z,97856.06
2019-02-12T01:14:05.994Z,97852.63
2019-02-12T01:16:34.748Z,97853.55
2019-02-12T01:19:00.882Z,97868.97
2019-02-12T01:21:29.469Z,97853.16
2019-02-12T01:23:55.699Z,97855.19
2019-02-12T01:26:24.293Z,97861.96
2019-02-12T01:28:50.376Z,97867.63
2019-02-12T01:31:16.479Z,97847.95
2019-02-12T01:33:42.321Z,97851.80
2019-02-12T01:36:08.140Z,97850.97
2019-02-12T01:38:37.031Z,97858.22
2019-02-12T01:41:02.857Z,97873.99
2019-02-12T01:43:31.789Z,97867.58
2019-02-12T01:45:58.455Z,97877.03
2019-02-12T01:48:24.287Z,97860.67
2019-02-12T01:50:50.398Z,97856.82
2019-02-12T01:53:19.581Z,97845.17
2019-02-12T01:55:45.439Z,97833.61
2019-02-12T01:58:14.006Z,97837.88
2019-02-12T02:01:02.055Z,97852.55
2019-02-12T02:03:27.929Z,97847.42
2019-02-12T02:05:53.758Z,97847.40
2019-02-12T02:08:19.690Z,97846.48
2019-02-12T02:10:45.485Z,97848.23
2019-02-12T02:13:11.335Z,97855.07
2019-02-12T02:15:37.187Z,97858.10
2019-02-12T02:18:03.279Z,97857.30
2019-02-12T02:20:29.109Z,97859.52
2019-02-12T02:22:54.919Z,97859.28
2019-02-12T02:25:20.773Z,97862.39
2019-02-12T02:27:46.633Z,97867.58
2019-02-12T02:30:14.071Z,97865.52
2019-02-12T02:32:39.990Z,97873.22
2019-02-12T02:35:06.127Z,97877.45
2019-02-12T02:37:32.204Z,97882.52
2019-02-12T02:39:58.053Z,97882.57
2019-02-12T02:42:23.888Z,97891.88
2019-02-12T02:44:49.693Z,97888.89
2019-02-12T02:47:15.816Z,97876.80
2019-02-12T02:49:42.573Z,97883.59
2019-02-12T02:52:08.384Z,97892.12
2019-02-12T02:54:41.434Z,97899.83
2019-02-12T02:57:07.255Z,97897.78
2019-02-12T02:59:33.365Z,97898.65
2019-02-12T03:01:59.301Z,97909.34
2019-02-12T03:04:25.154Z,97916.19
2019-02-12T03:06:51.291Z,97917.98
2019-02-12T03:09:17.422Z,97926.88
2019-02-12T03:11:46.298Z,97927.23
2019-02-12T03:14:12.132Z,97927.64
2019-02-12T03:16:41.204Z,97927.63
2019-02-12T03:19:07.035Z,97932.77
2019-02-12T03:21:32.866Z,97935.70
2019-02-12T03:23:58.988Z,97934.48
2019-02-12T03:26:24.825Z,97929.84
2019-02-12T03:28:53.753Z,97929.03
2019-02-12T03:31:19.865Z,97930.20
2019-02-12T03:33:45.796Z,97944.30
2019-02-12T03:36:11.689Z,97920.45
2019-02-12T03:38:42.516Z,97946.30
2019-02-12T03:41:08.692Z,97948.92
2019-02-12T03:43:37.556Z,97946.69
2019-02-12T03:46:03.370Z,97951.78
2019-02-12T03:48:30.611Z,97950.97
2019-02-12T03:50:56.399Z,97963.48
2019-02-12T03:53:25.013Z,97951.79
2019-02-12T03:55:56.438Z,97968.04
2019-02-12T03:58:22.282Z,97954.81
2019-02-12T04:00:48.115Z,97952.30
2019-02-12T04:03:13.957Z,97958.69
2019-02-12T04:05:40.125Z,97952.72
2019-02-12T04:08:06.046Z,97950.96
2019-02-12T04:10:31.874Z,97950.55
2019-02-12T04:12:57.809Z,97956.47
2019-02-12T04:15:25.790Z,97956.05
2019-02-12T04:17:51.707Z,97954.82
2019-02-12T04:20:20.380Z,97954.87
2019-02-12T04:22:46.657Z,97959.66
2019-02-12T04:25:17.518Z,97961.88
2019-02-12T04:27:43.377Z,97963.58
2019-02-12T04:30:12.141Z,97959.31
2019-02-12T04:32:38.142Z,97976.53
2019-02-12T04:35:04.007Z,97961.52
2019-02-12T04:37:32.977Z,97962.80
2019-02-12T04:39:58.825Z,97961.52
2019-02-12T04:42:25.034Z,97965.78
2019-02-12T04:44:51.160Z,97968.78
2019-02-12T04:47:16.974Z,97965.33
2019-02-12T04:49:43.068Z,97969.12
2019-02-12T04:52:11.713Z,97958.32
2019-02-12T04:54:37.555Z,97963.01
2019-02-12T04:57:06.129Z,97964.74
2019-02-12T04:59:31.998Z,97964.70
2019-02-12T05:02:00.149Z,97962.18
2019-02-12T05:04:25.968Z,97959.55
2019-02-12T05:06:55.281Z,97958.21
2019-02-12T05:09:21.094Z,97959.89
2019-02-12T05:11:49.443Z,97954.75
2019-02-12T05:14:15.574Z,97959.79
2019-02-12T05:16:41.795Z,97959.83
2019-02-12T05:19:07.914Z,97962.77
2019-02-12T05:21:33.832Z,97966.69
2019-02-12T05:24:02.767Z,97959.95
2019-02-12T05:26:28.597Z,97956.56
2019-02-12T05:28:57.658Z,97962.17
2019-02-12T05:31:23.762Z,97988.72
2019-02-12T05:33:52.762Z,97955.70
2019-02-12T05:36:18.579Z,97986.20
2019-02-12T05:38:47.194Z,97973.23
2019-02-12T05:41:13.343Z,97968.50
2019-02-12T05:43:42.224Z,97981.36
2019-02-12T05:46:08.060Z,97991.29
2019-02-12T05:48:33.990Z,97979.26
2019-02-12T05:50:59.818Z,97978.02
2019-02-12T05:53:25.659Z,97979.41
2019-02-12T05:55:54.783Z,97989.65
2019-02-12T05:58:20.618Z,97995.20
2019-02-12T06:00:49.579Z,97986.60
2019-02-12T06:03:15.391Z,98007.59
2019-02-12T06:05:44.561Z,97981.41
2019-02-12T06:08:10.788Z,97981.41
2019-02-12T06:10:36.609Z,97989.06
2019-02-12T06:13:02.566Z,97995.09
2019-02-12T06:15:31.695Z,97994.73
2019-02-12T06:17:57.520Z,97998.19
2019-02-12T06:20:28.236Z,98003.69
2019-02-12T06:23:03.108Z,98007.07
2019-02-12T06:25:22.079Z,98005.73
2019-02-12T06:27:47.938Z,98008.41
2019-02-12T06:30:13.905Z,98002.75
2019-02-12T06:32:39.961Z,98002.30
2019-02-12T06:35:07.313Z,97999.24
2019-02-12T06:37:33.162Z,98001.75
2019-02-12T06:39:59.075Z,98005.57
2019-02-12T06:42:27.940Z,98009.42
2019-02-12T06:44:54.101Z,98014.61
2019-02-12T06:47:22.728Z,98017.19
2019-02-12T06:49:48.537Z,98034.84
2019-02-12T06:52:17.324Z,98015.03
2019-02-12T06:54:43.420Z,98028.36
2019-02-12T06:57:12.271Z,98015.50
2019-02-12T06:59:38.398Z,98037.33
2019-02-12T07:02:42.069Z,98020.60
2019-02-12T07:05:08.107Z,98018.48
2019-02-12T07:08:26.752Z,98028.78
2019-02-12T07:11:05.368Z,98030.11
2019-02-12T07:13:34.994Z,98037.88
2019-02-12T07:16:04.607Z,98031.86
2019-02-12T07:19:08.487Z,98031.03
2019-02-12T07:22:07.213Z,98032.73
2019-02-12T07:24:36.857Z,98051.10
2019-02-12T07:27:15.424Z,98045.55
2019-02-12T07:29:47.964Z,98048.07
2019-02-12T07:32:26.671Z,98048.48
2019-02-12T07:35:09.871Z,98056.19
2019-02-12T07:37:48.726Z,98054.05
2019-02-12T07:40:26.980Z,98061.75
2019-02-12T07:42:59.395Z,98062.78
2019-02-12T07:45:47.292Z,98072.04
2019-02-12T07:48:35.695Z,98069.26
2019-02-12T07:51:08.062Z,98073.70
2019-02-12T07:53:56.217Z,98075.73
2019-02-12T07:56:37.418Z,98080.28
2019-02-12T07:59:31.957Z,98079.74
2019-02-12T08:02:18.423Z,98081.62
2019-02-12T08:05:03.256Z,98082.75
2019-02-12T08:08:20.624Z,98086.83
2019-02-12T08:11:19.313Z,98083.45
2019-02-12T08:14:04.260Z,98096.77
2019-02-12T08:16:57.929Z,98107.00
2019-02-12T08:19:53.786Z,98104.75
2019-02-12T08:22:37.992Z,98116.74
2019-02-12T08:25:15.638Z,98101.58
2019-02-12T08:28:12.429Z,98107.49
2019-02-12T08:30:57.096Z,98112.40
2019-02-12T08:33:47.445Z,98119.67
2019-02-12T08:36:44.006Z,98128.56
2019-02-12T08:39:31.846Z,98131.60
2019-02-12T08:42:14.119Z,98139.95
2019-02-12T08:44:43.731Z,98150.55
2019-02-12T08:47:45.870Z,98139.75
2019-02-12T08:50:24.818Z,98100.03
2019-02-12T08:52:57.357Z,98143.06
2019-02-12T08:55:43.836Z,98140.78
2019-02-12T08:58:13.454Z,98145.69
2019-02-12T09:00:54.808Z,98156.83
2019-02-12T09:03:39.248Z,98143.87
2019-02-12T09:06:15.263Z,98159.50
2019-02-12T09:08:57.334Z,98153.16
2019-02-12T09:11:39.052Z,98152.67
2019-02-12T09:14:11.462Z,98152.14
2019-02-12T09:16:55.875Z,98160.72
2019-02-12T09:19:28.310Z,98167.25
2019-02-12T09:25:26.348Z,98162.25
2019-02-12T09:28:19.506Z,98165.38
2019-02-12T09:31:18.105Z,98172.57
2019-02-12T09:33:47.753Z,98167.38
2019-02-12T09:36:40.085Z,98170.94
2019-02-12T09:39:26.528Z,98164.05
2019-02-12T09:41:59.200Z,98174.33
2019-02-12T09:45:03.973Z,98171.98
2019-02-12T09:47:48.981Z,98169.33
2019-02-12T09:50:27.918Z,98168.45
2019-02-12T09:53:20.317Z,98168.86
2019-02-12T09:56:08.392Z,98169.38
2019-02-12T09:58:50.194Z,98171.69
2019-02-12T10:01:32.237Z,98178.64
2019-02-12T10:04:04.412Z,98172.25
2019-02-12T10:06:55.833Z,98177.39
2019-02-12T10:09:28.319Z,98181.07
2019-02-12T10:12:15.967Z,98176.48
2019-02-12T10:14:57.303Z,98181.67
2019-02-12T10:17:26.943Z,98187.94
2019-02-12T10:20:05.673Z,98197.53
2019-02-12T10:22:44.732Z,98198.77
2019-02-12T10:25:14.252Z,98191.55
2019-02-12T10:27:43.912Z,98197.58
2019-02-12T10:30:22.206Z,98201.88
2019-02-12T10:32:51.036Z,98204.66
2019-02-12T10:35:16.861Z,98227.69
2019-02-12T10:37:45.520Z,98201.97
2019-02-12T10:40:11.579Z,98227.41
2019-02-12T10:42:37.378Z,98212.12
2019-02-12T10:45:06.242Z,98212.20
2019-02-12T10:47:32.070Z,98222.06
2019-02-12T10:49:59.603Z,98222.06
2019-02-12T10:52:25.894Z,98223.48
2019-02-12T10:54:51.756Z,98219.82
2019-02-12T10:57:18.084Z,98222.77
2019-02-12T10:59:46.715Z,98215.99
2019-02-12T11:02:12.839Z,98227.30
2019-02-12T11:04:41.753Z,98211.08
2019-02-12T11:07:07.899Z,98222.52
2019-02-12T11:09:36.859Z,98207.28
2019-02-12T11:12:02.945Z,98223.92
2019-02-12T11:14:29.043Z,98204.50
2019-02-12T11:16:54.887Z,98207.11
2019-02-12T11:19:20.982Z,98209.17
2019-02-12T11:21:46.796Z,98206.92
2019-02-12T11:24:12.766Z,98205.88
2019-02-12T11:26:41.601Z,98200.27
2019-02-12T11:29:07.429Z,98199.52
2019-02-12T11:31:36.074Z,98202.63
2019-02-12T11:34:01.926Z,98223.84
2019-02-12T11:36:30.822Z,98214.42
2019-02-12T11:38:56.647Z,98214.64
2019-02-12T11:41:25.791Z,98217.74
2019-02-12T11:43:51.648Z,98220.27
2019-02-12T11:46:20.496Z,98234.44
2019-02-12T11:48:46.662Z,98237.52
2019-02-12T11:51:15.621Z,98221.77
2019-02-12T11:53:41.435Z,98238.02
2019-02-12T11:56:07.655Z,98230.06
2019-02-12T11:58:33.731Z,98224.27
2019-02-12T12:00:59.884Z,98224.38
2019-02-12T12:03:25.776Z,98225.80
2019-02-12T12:05:51.580Z,98241.72
2019-02-12T12:08:20.873Z,98231.36
2019-02-12T12:10:46.678Z,98238.35
2019-02-12T12:13:17.559Z,98234.58
2019-02-12T12:15:43.385Z,98232.97
2019-02-12T12:18:12.200Z,98230.92
2019-02-12T12:20:38.800Z,98245.05
2019-02-12T12:25:50.478Z,98232.66
2019-02-12T12:28:16.296Z,98225.30
2019-02-12T12:30:42.173Z,98214.07
2019-02-12T12:33:08.271Z,98222.72
2019-02-12T12:35:34.234Z,98221.98
2019-02-12T12:38:00.065Z,98229.86
2019-02-12T12:40:25.906Z,98220.25
2019-02-12T12:42:51.851Z,98214.44
2019-02-12T12:45:18.025Z,98216.56
2019-02-12T12:47:43.850Z,98215.02
2019-02-12T12:50:32.194Z,98217.53
2019-02-12T12:52:57.990Z,98217.27
2019-02-12T12:55:25.384Z,98218.25
2019-02-12T12:57:51.262Z,98211.55
2019-02-12T13:00:17.358Z,98212.34
2019-02-12T13:02:43.324Z,98207.11
2019-02-12T13:05:10.894Z,98216.84
2019-02-12T13:07:36.870Z,98215.31
2019-02-12T13:10:06.028Z,98214.28
2019-02-12T13:12:31.868Z,98211.55
2019-02-12T13:14:57.684Z,98208.75
2019-02-12T13:17:23.832Z,98214.12
2019-02-12T13:19:49.658Z,98210.86
2019-02-12T13:22:15.728Z,98210.60
2019-02-12T13:24:41.883Z,98216.42
2019-02-12T13:27:07.974Z,98217.91
2019-02-12T13:29:33.877Z,98219.86
2019-02-12T13:31:59.777Z,98220.81
2019-02-12T13:34:25.868Z,98222.67
2019-02-12T13:36:51.668Z,98226.48
2019-02-12T13:39:17.862Z,98224.56
2019-02-12T13:41:43.994Z,98218.06
2019-02-12T13:44:09.785Z,98219.73
2019-02-12T13:46:35.623Z,98218.17
2019-02-12T13:49:01.438Z,98215.80
2019-02-12T13:51:27.547Z,98215.58
2019-02-12T13:53:53.473Z,98218.16
2019-02-12T13:56:19.322Z,98185.43
2019-02-12T13:58:45.165Z,98209.47
2019-02-12T14:01:10.981Z,98212.73
2019-02-12T14:03:36.883Z,98219.76
2019-02-12T14:06:02.720Z,98217.34
2019-02-12T14:08:28.974Z,98227.31
2019-02-12T14:10:55.089Z,98220.92
2019-02-12T14:13:20.914Z,98221.95
2019-02-12T14:15:47.065Z,98221.50
2019-02-12T14:18:15.927Z,98221.50
2019-02-12T14:20:41.790Z,98223.66
2019-02-12T14:23:07.602Z,98233.52
2019-02-12T14:25:33.458Z,98238.33
2019-02-12T14:27:59.547Z,98249.16
2019-02-12T14:30:28.672Z,98246.55
2019-02-12T14:32:54.500Z,98259.69
2019-02-12T14:35:23.653Z,98246.74
2019-02-12T14:37:49.471Z,98244.81
2019-02-12T14:40:16.993Z,98251.11
2019-02-12T14:42:43.124Z,98265.67
2019-02-12T14:45:14.024Z,98250.95
2019-02-12T14:47:40.107Z,98239.36
2019-02-12T14:50:09.115Z,98247.06
2019-02-12T14:52:35.332Z,98241.48
2019-02-12T14:55:01.177Z,98244.83
2019-02-12T14:57:27.208Z,98250.44
2019-02-12T14:59:53.106Z,98256.34
2019-02-12T15:02:18.938Z,98251.25
2019-02-12T15:04:44.740Z,98246.26
2019-02-12T15:07:13.717Z,98248.93
2019-02-12T15:09:39.557Z,98260.30
2019-02-12T15:12:08.672Z,98247.62
2019-02-12T15:14:34.517Z,98254.13
2019-02-12T15:17:03.583Z,98242.97
2019-02-12T15:19:29.415Z,98253.70
2019-02-12T15:21:58.256Z,98241.81
2019-02-12T15:24:24.081Z,98242.17
2019-02-12T15:26:52.794Z,98242.95
2019-02-12T15:29:18.598Z,98253.16
2019-02-12T15:31:47.377Z,98242.84
2019-02-12T15:34:13.810Z,98258.78
2019-02-12T15:36:39.937Z,98248.36
2019-02-12T15:39:05.963Z,98241.20
2019-02-12T15:41:34.605Z,98244.59
2019-02-12T15:44:00.532Z,98245.45
2019-02-12T15:46:26.371Z,98239.91
2019-02-12T15:48:54.972Z,98234.06
2019-02-12T15:51:20.857Z,98255.95
2019-02-12T15:53:49.481Z,98238.22
2019-02-12T15:56:15.311Z,98250.20
2019-02-12T15:58:43.939Z,98235.56
2019-02-12T16:01:10.070Z,98235.56
2019-02-12T16:03:38.937Z,98229.53
2019-02-12T16:06:05.037Z,98242.30
2019-02-12T16:08:32.103Z,98240.92
2019-02-12T16:10:58.995Z,98258.62
2019-02-12T16:13:24.840Z,98241.80
2019-02-12T16:15:50.728Z,98246.97
2019-02-12T16:18:16.575Z,98252.86
2019-02-12T16:20:45.409Z,98250.73
2019-02-12T16:23:11.353Z,98252.63
2019-02-12T16:25:40.227Z,98249.34
2019-02-12T16:28:06.041Z,98267.55
2019-02-12T16:30:34.638Z,98251.27
2019-02-12T16:33:00.485Z,98276.03
2019-02-12T16:35:29.082Z,98253.58
2019-02-12T16:37:54.892Z,98276.23
2019-02-12T16:40:23.334Z,98257.33
2019-02-12T16:42:49.557Z,98277.58
2019-02-12T16:45:30.685Z,98267.75
2019-02-12T16:47:56.784Z,98274.74
2019-02-12T16:50:22.886Z,98272.28
2019-02-12T16:52:48.744Z,98274.57
2019-02-12T16:55:14.655Z,98281.88
2019-02-12T16:57:40.476Z,98285.95
2019-02-12T17:00:09.686Z,98289.97
2019-02-12T17:02:35.490Z,98261.80
2019-02-12T17:05:01.453Z,98300.39
2019-02-12T17:07:27.365Z,98304.19
2019-02-12T17:09:53.261Z,98298.14
2019-02-12T17:12:19.101Z,98302.48
2019-02-12T17:14:44.923Z,98307.64
2019-02-12T17:17:10.763Z,98309.41
2019-02-12T17:19:36.583Z,98312.69
2019-02-12T17:22:02.535Z,98300.33
2019-02-12T17:24:28.623Z,98311.91
2019-02-12T17:26:54.588Z,98324.08
2019-02-12T17:29:20.398Z,98329.77
2019-02-12T17:31:46.256Z,98329.28
2019-02-12T17:34:14.905Z,98333.97
2019-02-12T17:36:40.755Z,98346.47
2019-02-12T17:39:09.743Z,98336.78
2019-02-12T17:41:35.593Z,98336.43
2019-02-12T17:44:04.620Z,98346.33
2019-02-12T17:46:30.773Z,98352.72
2019-02-12T17:48:59.947Z,98350.55
2019-02-12T17:51:28.209Z,98362.58
2019-02-12T17:53:54.264Z,98342.88
2019-02-12T17:56:24.882Z,98350.72
2019-02-12T17:58:48.116Z,98349.44
2019-02-12T18:01:14.015Z,98358.97
2019-02-12T18:03:39.962Z,98355.52
2019-02-12T18:06:05.767Z,98358.59
2019-02-12T18:08:31.578Z,98364.63
2019-02-12T18:10:59.593Z,98360.36
2019-02-12T18:13:25.536Z,98365.13
2019-02-12T18:15:56.269Z,98365.64
2019-02-12T18:18:22.388Z,98363.94
2019-02-12T18:20:51.295Z,98364.36
2019-02-12T18:23:17.399Z,98388.79
2019-02-12T18:25:43.237Z,98367.43
2019-02-12T18:28:09.088Z,98378.23
2019-02-12T18:30:39.412Z,98379.52
2019-02-12T18:33:06.159Z,98382.97
2019-02-12T18:35:35.032Z,98379.56
2019-02-12T18:38:00.877Z,98395.88
2019-02-12T18:40:27.000Z,98395.95
2019-02-12T18:42:52.843Z,98398.08
2019-02-12T18:45:21.343Z,98397.62
2019-02-12T18:47:47.161Z,98403.27
2019-02-12T18:50:13.142Z,98399.08
2019-02-12T18:52:42.338Z,98392.70
2019-02-12T18:55:10.383Z,98419.70
2019-02-12T18:57:36.235Z,98396.62
2019-02-12T19:00:05.080Z,98386.74
2019-02-12T19:02:30.949Z,98393.65
2019-02-12T19:04:56.769Z,98399.67
2019-02-12T19:07:25.662Z,98396.64
2019-02-12T19:09:51.623Z,98417.67
2019-02-12T19:12:20.854Z,98397.95
2019-02-12T19:14:46.651Z,98411.71
2019-02-12T19:17:12.468Z,98395.86
2019-02-12T19:19:38.359Z,98390.70
2019-02-12T19:22:04.204Z,98388.16
2019-02-12T19:24:30.028Z,98399.30
2019-02-12T19:26:55.952Z,98394.56
2019-02-12T19:29:26.624Z,98399.73
2019-02-12T19:31:59.107Z,98390.76
2019-02-12T19:34:20.213Z,98387.34
2019-02-12T19:36:46.055Z,98389.95
2019-02-12T19:39:14.675Z,98395.95
2019-02-12T19:41:40.479Z,98404.97
2019-02-12T19:44:09.140Z,98396.44
2019-02-12T19:46:35.232Z,98416.56
2019-02-12T19:49:04.468Z,98402.42
2019-02-12T19:51:30.313Z,98420.42
2019-02-12T19:53:56.136Z,98418.31
2019-02-12T19:56:21.991Z,98416.61
2019-02-12T19:58:47.825Z,98422.16
2019-02-12T20:01:16.953Z,98417.02
2019-02-12T20:03:42.792Z,98415.76
2019-02-12T20:06:09.808Z,98418.74
2019-02-12T20:08:35.631Z,98447.88
2019-02-12T20:11:06.212Z,98437.58
2019-02-12T20:13:32.041Z,98442.72
2019-02-12T20:15:59.569Z,98435.89
2019-02-12T20:18:25.406Z,98425.62
2019-02-12T20:20:56.317Z,98419.62
2019-02-12T20:23:22.259Z,98435.91
2019-02-12T20:25:51.117Z,98408.92
2019-02-12T20:28:16.944Z,98415.80
2019-02-12T20:30:42.783Z,98399.51
2019-02-12T20:33:08.642Z,98395.69
2019-02-12T20:35:36.346Z,98401.25
2019-02-12T20:38:02.239Z,98404.23
2019-02-12T20:40:28.055Z,98406.80
2019-02-12T20:42:56.917Z,98398.25
2019-02-12T20:45:22.730Z,98420.53
2019-02-12T20:47:51.356Z,98401.67
2019-02-12T20:50:21.050Z,98424.34
2019-02-12T20:52:46.913Z,98405.09
2019-02-12T20:55:12.750Z,98419.22
2019-02-12T20:57:39.436Z,98420.07
2019-02-12T21:00:17.593Z,98438.03
2019-02-12T21:02:43.414Z,98418.35
2019-02-12T21:05:11.152Z,98421.34
2019-02-12T21:07:36.991Z,98425.63
2019-02-12T21:10:09.130Z,98432.02
2019-02-12T21:12:35.221Z,98426.88
2019-02-12T21:15:01.051Z,98422.61
2019-02-12T21:17:26.859Z,98428.61
2019-02-12T21:19:52.710Z,98426.45
2019-02-12T21:22:18.518Z,98431.19
2019-02-12T21:24:44.348Z,98432.88
2019-02-12T21:27:10.185Z,98435.45
2019-02-12T21:29:36.291Z,98439.73
2019-02-12T21:32:02.179Z,98439.73
2019-02-12T21:34:28.040Z,98433.72
2019-02-12T21:36:53.854Z,98432.45
2019-02-12T21:39:21.590Z,98429.87
2019-02-12T21:41:47.406Z,98436.28
2019-02-12T21:44:13.228Z,98433.27
2019-02-12T21:46:39.083Z,98438.84
2019-02-12T21:49:04.901Z,98439.28
2019-02-12T21:51:33.705Z,98442.24
2019-02-12T21:53:59.829Z,98451.20
2019-02-12T21:56:25.712Z,98439.67
2019-02-12T21:58:51.563Z,98448.22
2019-02-12T22:01:20.448Z,98447.38
2019-02-12T22:03:46.320Z,98443.09
2019-02-12T22:06:15.781Z,98443.48
2019-02-12T22:08:41.631Z,98435.72
2019-02-12T22:11:12.097Z,98434.45
2019-02-12T22:13:37.956Z,98441.31
2019-02-12T22:16:06.582Z,98442.58
2019-02-12T22:18:32.400Z,98441.31
2019-02-12T22:20:58.542Z,98430.17
2019-02-12T22:23:24.593Z,98426.75
2019-02-12T22:25:50.438Z,98421.61
2019-02-12T22:28:16.296Z,98429.74
2019-02-12T22:30:42.132Z,98440.42
2019-02-12T22:33:10.691Z,98436.55
2019-02-12T22:35:36.779Z,98434.42
2019-02-12T22:38:05.462Z,98433.98
2019-02-12T22:40:31.561Z,98433.59
2019-02-12T22:43:00.533Z,98437.86
2019-02-12T22:45:26.369Z,98443.38
2019-02-12T22:47:57.046Z,98438.63
2019-02-12T22:50:22.864Z,98436.09
2019-02-12T22:52:50.527Z,98439.95
2019-02-12T22:55:16.351Z,98466.00
2019-02-12T22:57:48.995Z,98434.80
2019-02-12T23:00:13.743Z,98430.91
2019-02-12T23:02:39.789Z,98439.06
2019-02-12T23:05:05.731Z,98435.20
2019-02-12T23:07:31.580Z,98443.72
2019-02-12T23:09:57.386Z,98431.29
2019-02-12T23:12:23.259Z,98427.92
2019-02-12T23:14:52.204Z,98429.66
2019-02-12T23:17:18.121Z,98432.64
2019-02-12T23:19:46.994Z,98425.81
2019-02-12T23:22:12.881Z,98422.36
2019-02-12T23:24:41.616Z,98421.48
2019-02-12T23:27:07.430Z,98444.56
2019-02-12T23:29:36.291Z,98435.17
2019-02-12T23:32:02.157Z,98438.16
2019-02-12T23:34:28.363Z,98434.23
2019-02-12T23:36:54.212Z,98426.55
2019-02-12T23:39:20.313Z,98418.40
2019-02-12T23:41:48.947Z,98431.54
2019-02-12T23:44:18.282Z,98419.63
2019-02-12T23:46:44.385Z,98426.49
2019-02-12T23:49:10.209Z,98423.97
2019-02-12T23:51:39.080Z,98429.95
2019-02-12T23:54:04.935Z,98434.66
2019-02-12T23:56:33.863Z,98435.09
2019-02-12T23:58:59.678Z,98453.84
